Data for 10/21/2018

Time Sea-Level Adjusted Pressure Absolute Pressure Temperature Relative Humidity Dew Point   
(mb) (inHg) (mb) (inHg) (C) (F) (%) (C) (F)
00:05 1023 30.21 852 25.16 9.3 48.8 44 -2.4 27.7
00:10 1023 30.21 852 25.16 9.3 48.8 43 -2.4 27.6
00:15 1023 30.21 852 25.16 9.3 48.7 44 -2.4 27.6
00:20 1023 30.21 852 25.16 9.2 48.5 44 -2.3 27.9
00:25 1023 30.21 852 25.16 8.9 48 45 -2.4 27.7
00:30 1023 30.21 852 25.16 8.8 47.8 46 -2.2 28.1
00:35 1023 30.21 852 25.16 8.2 46.7 48 -2.2 28.1
00:40 1023 30.21 852 25.16 7.9 46.1 48 -2.4 27.8
00:45 1023 30.21 852 25.16 8 46.5 47 -2.5 27.4
00:50 1023 30.21 852 25.16 8.4 47.2 45 -2.8 27
00:55 1023 30.21 852 25.16 9 48.2 44 -2.7 27.2
01:00 1023 30.21 852 25.16 9 48.2 44 -2.5 27.5
01:05 1022 30.18 852 25.16 8.9 48.1 45 -2.4 27.7
01:10 1022 30.18 852 25.16 8.6 47.6 46 -2.4 27.7
01:15 1023 30.21 852 25.16 8.6 47.5 45 -2.6 27.3
01:20 1023 30.21 852 25.16 9 48.2 43 -2.8 26.9
01:25 1023 30.21 852 25.16 9.4 48.9 42 -2.7 27.1
01:30 1023 30.21 852 25.16 9.5 49.1 42 -2.9 26.9
01:35 1023 30.21 852 25.16 9.7 49.5 41 -3 26.7
01:40 1023 30.21 852 25.16 10 50.1 39 -3.1 26.3
01:45 1023 30.21 852 25.16 10.1 50.1 41 -2.6 27.3
01:50 1023 30.21 852 25.16 9.7 49.5 41 -2.8 27
01:55 1023 30.21 852 25.16 9.5 49 43 -2.5 27.4
02:00 1022 30.18 852 25.16 8.6 47.4 47 -2 28.5
02:05 1022 30.18 852 25.16 8.4 47.2 43 -3.4 25.8
02:10 1022 30.18 852 25.16 9 48.3 42 -3 26.5
02:15 1022 30.18 852 25.16 9.9 49.8 40 -3.1 26.5
02:20 1022 30.18 852 25.16 9.1 48.5 43 -2.8 26.9
02:25 1022 30.18 852 25.16 9.4 49 41 -3.1 26.4
02:30 1022 30.18 852 25.16 9.4 48.9 43 -2.4 27.7
02:35 1022 30.18 852 25.16 8.9 47.9 44 -2.8 27
02:40 1022 30.18 852 25.16 8.5 47.2 44 -3 26.6
02:45 1022 30.18 852 25.16 8.8 47.8 44 -2.8 26.9
02:50 1022 30.18 852 25.16 8.5 47.3 46 -2.4 27.6
02:55 1022 30.18 852 25.16 8.7 47.7 43 -3.2 26.2
03:00 1022 30.18 852 25.16 9.1 48.5 42 -3 26.6
03:05 1022 30.18 852 25.16 9.3 48.7 41 -3.1 26.4
03:10 1022 30.18 851 25.13 9.2 48.6 43 -2.8 27
03:15 1022 30.18 851 25.13 8.8 47.8 44 -2.9 26.8
03:20 1022 30.18 852 25.16 8.6 47.4 45 -2.8 27
03:25 1022 30.18 851 25.13 8.6 47.4 43 -3.2 26.3
03:30 1022 30.18 851 25.13 8.4 47.2 45 -2.8 26.9
03:35 1022 30.18 851 25.13 8.3 47 45 -2.9 26.7
03:40 1022 30.18 851 25.13 8.2 46.8 46 -2.6 27.2
03:45 1022 30.18 851 25.13 7.7 45.8 48 -2.6 27.3
03:50 1022 30.18 851 25.13 7.7 45.9 47 -2.8 27
03:55 1022 30.18 851 25.13 7.7 45.9 48 -2.6 27.3
04:00 1022 30.18 851 25.13 7.7 45.9 47 -2.9 26.9
04:05 1022 30.18 851 25.13 8 46.4 45 -3.2 26.2
04:10 1022 30.18 851 25.13 8.4 47.2 45 -2.7 27.1
04:15 1022 30.18 851 25.13 8.1 46.6 46 -2.8 27
04:20 1022 30.18 851 25.13 7.9 46.1 47 -2.8 27
04:25 1022 30.18 851 25.13 7.7 45.9 46 -3 26.6
04:30 1022 30.18 851 25.13 8 46.4 45 -3 26.5
04:35 1022 30.18 851 25.13 7.9 46.3 46 -2.9 26.9
04:40 1022 30.18 851 25.13 7.6 45.7 48 -2.8 26.9
04:45 1022 30.18 852 25.16 7.5 45.6 47 -2.9 26.7
04:50 1022 30.18 852 25.16 7.5 45.6 47 -3 26.6
04:55 1022 30.18 851 25.13 7.6 45.7 46 -3.1 26.4
05:00 1022 30.18 851 25.13 7.8 46 46 -3 26.6
05:05 1022 30.18 851 25.13 7.8 46 47 -2.9 26.7
05:10 1022 30.18 851 25.13 7.8 46.1 46 -3.1 26.5
05:15 1022 30.18 851 25.13 7.7 45.9 48 -2.7 27.2
05:20 1022 30.18 852 25.16 7.5 45.6 46 -3.3 26.1
05:25 1022 30.18 852 25.16 7.9 46.3 46 -2.9 26.7
05:30 1022 30.18 852 25.16 7.5 45.4 47 -3 26.5
05:35 1022 30.18 852 25.16 7.6 45.7 47 -3.1 26.5
05:40 1022 30.18 852 25.16 7.8 46 46 -3.2 26.3
05:45 1022 30.18 852 25.16 7.8 46.1 47 -2.8 27
05:50 1022 30.18 852 25.16 7.3 45.1 49 -2.8 27
05:55 1022 30.18 852 25.16 6.8 44.3 51 -2.5 27.4
06:00 1022 30.18 852 25.16 6.5 43.6 52 -2.6 27.3
06:05 1022 30.18 852 25.16 6.2 43.2 53 -2.6 27.3
06:10 1022 30.18 852 25.16 5.9 42.5 56 -2.3 27.8
06:15 1022 30.18 852 25.16 5.2 41.3 58 -2.5 27.6
06:20 1022 30.18 852 25.16 5.1 41.2 58 -2.4 27.6
06:25 1023 30.21 852 25.16 4.8 40.7 60 -2.3 27.9
06:30 1022 30.18 852 25.16 4.7 40.4 60 -2.5 27.5
06:35 1022 30.18 852 25.16 4.8 40.6 60 -2.3 27.8
06:40 1022 30.18 852 25.16 4.6 40.2 61 -2.3 27.8
06:45 1022 30.18 852 25.16 4.3 39.8 62 -2.3 27.9
06:50 1022 30.18 852 25.16 4.2 39.6 62 -2.5 27.6
06:55 1022 30.18 852 25.16 4.2 39.6 62 -2.5 27.5
07:00 1022 30.18 852 25.16 4.4 39.9 60 -2.6 27.4
07:05 1022 30.18 852 25.16 4.7 40.4 60 -2.5 27.5
07:10 1023 30.21 852 25.16 4.7 40.5 58 -2.7 27.1
07:15 1023 30.21 852 25.16 5.8 42.4 54 -2.9 26.8
07:20 1023 30.21 852 25.16 6 42.8 53 -2.9 26.8
07:25 1023 30.21 852 25.16 6.3 43.4 52 -2.9 26.8
07:30 1023 30.21 852 25.16 6.7 44 51 -2.7 27.2
07:35 1023 30.21 852 25.16 6.6 43.9 51 -2.8 27
07:40 1023 30.21 852 25.16 7 44.6 48 -3.2 26.3
07:45 1023 30.21 852 25.16 7.6 45.7 48 -2.8 27
07:50 1023 30.21 852 25.16 7.8 46 47 -2.9 26.8
07:55 1023 30.21 852 25.16 7.9 46.1 47 -2.8 26.9
08:00 1023 30.21 852 25.16 8 46.3 46 -3 26.6
08:05 1023 30.21 852 25.16 8.3 46.9 45 -3 26.7
08:10 1023 30.21 852 25.16 8.6 47.4 45 -2.8 27
08:15 1023 30.21 852 25.16 8.8 47.8 44 -2.7 27.1
08:20 1023 30.21 852 25.16 9.1 48.4 44 -2.5 27.4
08:25 1023 30.21 852 25.16 9.5 49 43 -2.6 27.4
08:30 1023 30.21 852 25.16 9.6 49.2 43 -2.3 27.9
08:35 1023 30.21 852 25.16 9.8 49.6 42 -2.5 27.5
08:40 1023 30.21 852 25.16 10.7 51.2 41 -2.2 28.1
08:45 1023 30.21 852 25.16 11.2 52.1 39 -2.3 27.8
08:50 1023 30.21 852 25.16 11.9 53.4 36 -2.8 26.9
08:55 1023 30.21 852 25.16 12.6 54.7 33 -3 26.6
09:00 1023 30.21 852 25.16 13 55.5 33 -2.8 27
09:05 1023 30.21 852 25.16 13 55.5 33 -2.9 26.8
09:10 1023 30.21 852 25.16 13.1 55.5 31 -3.5 25.7
09:15 1023 30.21 852 25.16 13.1 55.5 32 -3.3 26.1
09:20 1023 30.21 852 25.16 13.4 56.1 31 -3.2 26.3
09:25 1022 30.18 852 25.16 12.8 55 33 -3.1 26.4
09:30 1022 30.18 852 25.16 13.2 55.8 32 -3.2 26.3
09:35 1022 30.18 852 25.16 13.5 56.3 31 -3.3 26
09:40 1022 30.18 852 25.16 13.9 56.9 31 -3.1 26.4
09:45 1022 30.18 852 25.16 14.2 57.6 30 -3.1 26.5
09:50 1022 30.18 852 25.16 14.6 58.2 29 -3.2 26.3
09:55 1022 30.18 852 25.16 15 58.9 29 -2.9 26.7
10:00 1022 30.18 851 25.13 15 59.1 29 -2.7 27.1
10:05 1022 30.18 851 25.13 15.1 59.2 29 -2.5 27.4
10:10 1022 30.18 851 25.13 15.2 59.4 29 -2.6 27.2
10:15 1022 30.18 851 25.13 15.3 59.5 29 -2.6 27.3
10:20 1022 30.18 851 25.13 15.3 59.5 29 -2.7 27.1
10:25 1022 30.18 851 25.13 15.2 59.4 29 -2.4 27.6
10:30 1022 30.18 851 25.13 15.4 59.7 28 -2.7 27.1
10:35 1022 30.18 851 25.13 15.6 60 28 -2.8 26.9
10:40 1022 30.18 851 25.13 16.2 61.2 27 -2.8 26.9
10:45 1022 30.18 851 25.13 16.7 62 26 -2.6 27.3
10:50 1022 30.18 851 25.13 16.4 61.5 27 -2.6 27.3
10:55 1022 30.18 851 25.13 16.4 61.6 27 -2.7 27.1
11:00 1022 30.18 851 25.13 16.9 62.5 26 -2.5 27.5
11:05 1022 30.18 851 25.13 16.8 62.2 26 -2.6 27.4
11:10 1022 30.18 851 25.13 17 62.6 27 -2.2 28
11:15 1022 30.18 851 25.13 17.2 62.9 27 -1.6 29
11:20 1022 30.18 851 25.13 16.7 62 28 -1.7 29
11:25 1022 30.18 851 25.13 16.9 62.5 27 -2 28.4
11:30 1021 30.15 851 25.13 17.1 62.8 28 -1.3 29.6
11:35 1021 30.15 851 25.13 16.5 61.6 29 -1.7 28.9
11:40 1021 30.15 851 25.13 16.7 62 29 -1.3 29.6
11:45 1021 30.15 851 25.13 16.4 61.5 30 -1.1 30.1
11:50 1021 30.15 851 25.13 16 60.8 31 -1 30.1
11:55 1021 30.15 850 25.1 16.2 61.1 31 -1 30.2
12:00 1021 30.15 850 25.1 16.5 61.7 30 -1.1 30
12:05 1021 30.15 850 25.1 16.3 61.4 31 -0.7 30.7
12:10 1021 30.15 850 25.1 15.8 60.5 31 -1.2 29.9
12:15 1021 30.15 850 25.1 16.6 61.9 29 -1.3 29.6
12:20 1021 30.15 850 25.1 17.2 62.9 28 -1.2 29.8
12:25 1021 30.15 850 25.1 18 64.4 27 -1 30.2
12:30 1021 30.15 850 25.1 18.6 65.6 26 -1.3 29.6
12:35 1021 30.15 850 25.1 18.4 65.1 28 -0.3 31.5
12:40 1021 30.15 850 25.1 18.4 65.2 26 -1.2 29.9
12:45 1021 30.15 850 25.1 19.3 66.7 25 -1.1 30
12:50 1021 30.15 850 25.1 19.7 67.4 24 -1.1 30.1
12:55 1021 30.15 850 25.1 19.3 66.7 26 -0.6 30.8
13:00 1021 30.15 850 25.1 18.5 65.3 27 -0.9 30.5
13:05 1021 30.15 850 25.1 17.9 64.1 28 -0.6 31
13:10 1021 30.15 850 25.1 18.3 64.9 27 -0.9 30.3
13:15 1021 30.15 850 25.1 18.9 66 25 -1.3 29.7
13:20 1021 30.15 850 25.1 19.5 67.1 23 -2.2 28.1
13:25 1020 30.12 850 25.1 19.6 67.2 24 -1.3 29.7
13:30 1020 30.12 850 25.1 19.9 67.8 23 -2 28.4
13:35 1020 30.12 850 25.1 20.1 68.2 23 -1.5 29.4
13:40 1020 30.12 850 25.1 20.7 69.2 21 -2 28.4
13:45 1020 30.12 850 25.1 20.9 69.7 21 -1.8 28.7
13:50 1020 30.12 849 25.07 21 69.8 21 -1.9 28.6
13:55 1020 30.12 849 25.07 21.2 70.2 20 -2.3 27.9
14:00 1020 30.12 849 25.07 21.6 70.9 20 -2 28.3
14:05 1020 30.12 849 25.07 22.2 71.9 19 -2.6 27.4
14:10 1020 30.12 849 25.07 21.6 70.8 20 -2.4 27.6
14:15 1020 30.12 849 25.07 21.5 70.7 17 -4.7 23.5
14:20 1020 30.12 849 25.07 20.9 69.6 18 -4.2 24.4
14:25 1020 30.12 849 25.07 20.4 68.6 18 -4.7 23.5
14:30 1020 30.12 849 25.07 21 69.8 19 -3.3 26
14:35 1020 30.12 849 25.07 20.7 69.3 19 -3.7 25.4
14:40 1020 30.12 849 25.07 21.6 70.8 19 -2.8 27
14:45 1020 30.12 849 25.07 21.3 70.3 20 -2.7 27.2
14:50 1020 30.12 849 25.07 20.8 69.4 19 -3.8 25.2
14:55 1020 30.12 849 25.07 21.2 70.1 20 -2.4 27.8
15:00 1020 30.12 849 25.07 21.4 70.4 18 -3.9 24.9
15:05 1020 30.12 849 25.07 20.5 68.9 18 -4.5 23.9
15:10 1020 30.12 849 25.07 20 68.1 20 -3.7 25.3
15:15 1020 30.12 849 25.07 20.3 68.6 18 -4.9 23.1
15:20 1020 30.12 849 25.07 21.1 70 16 -5.2 22.7
15:25 1020 30.12 849 25.07 20.9 69.6 19 -3.6 25.6
15:30 1020 30.12 849 25.07 20.2 68.4 19 -3.8 25.2
15:35 1020 30.12 849 25.07 20.5 69 19 -3.7 25.4
15:40 1020 30.12 849 25.07 21 69.7 18 -4.1 24.7
15:45 1020 30.12 849 25.07 21.5 70.7 18 -3.8 25.1
15:50 1020 30.12 849 25.07 21.3 70.3 18 -4.1 24.6
15:55 1020 30.12 849 25.07 21.1 69.9 19 -3 26.7
16:00 1020 30.12 849 25.07 20.1 68.2 19 -4.3 24.2
16:05 1020 30.12 849 25.07 20.6 69.1 18 -4.1 24.7
16:10 1020 30.12 849 25.07 20.8 69.5 18 -3.9 24.9
16:15 1020 30.12 849 25.07 20.8 69.4 20 -3.1 26.4
16:20 1020 30.12 849 25.07 20.5 68.9 20 -2.9 26.7
16:25 1020 30.12 849 25.07 20.6 69.1 20 -3 26.5
16:30 1020 30.12 849 25.07 20.3 68.5 21 -2.8 27
16:35 1020 30.12 849 25.07 19.9 67.9 21 -2.7 27.2
16:40 1020 30.12 849 25.07 19.8 67.6 22 -2.6 27.4
16:45 1020 30.12 849 25.07 19.5 67.1 22 -2.4 27.7
16:50 1020 30.12 849 25.07 19.3 66.7 23 -2.3 27.9
16:55 1020 30.12 849 25.07 19 66.2 24 -1.9 28.5
17:00 1020 30.12 849 25.07 18.9 66 24 -1.8 28.7
17:05 1020 30.12 849 25.07 18.6 65.5 25 -1.6 29.1
17:10 1020 30.12 849 25.07 18.3 64.9 25 -1.7 28.9
17:15 1020 30.12 849 25.07 18.1 64.5 26 -1.4 29.4
17:20 1020 30.12 849 25.07 17.8 64 27 -1.4 29.4
17:25 1020 30.12 849 25.07 17.3 63.2 29 -0.9 30.4
17:30 1020 30.12 849 25.07 16.3 61.3 33 0.1 32.1
17:35 1020 30.12 849 25.07 15.1 59.1 37 0.5 32.9
17:40 1020 30.12 849 25.07 14.4 57.9 38 0.4 32.7
17:45 1020 30.12 849 25.07 14 57.1 39 0.3 32.5
17:50 1020 30.12 849 25.07 13.7 56.6 39 -0 32
17:55 1020 30.12 849 25.07 13.5 56.3 38 -0.3 31.4
18:00 1020 30.12 849 25.07 13.3 56 40 -0 31.9
18:05 1020 30.12 849 25.07 13.1 55.6 40 -0.1 31.9
18:10 1020 30.12 849 25.07 12.8 55.1 41 0 32
18:15 1020 30.12 849 25.07 12.5 54.6 42 0 32
18:20 1020 30.12 849 25.07 12.4 54.3 42 -0.2 31.7
18:25 1020 30.12 849 25.07 12.2 54 42 -0.1 31.8
18:30 1020 30.12 849 25.07 12 53.5 43 -0.1 31.8
18:35 1020 30.12 849 25.07 11.8 53.2 42 -0.6 30.9
18:40 1020 30.12 849 25.07 12.1 53.8 41 -0.7 30.8
18:45 1020 30.12 849 25.07 12 53.7 41 -0.8 30.6
18:50 1020 30.12 849 25.07 11.9 53.4 40 -1.1 30
18:55 1020 30.12 849 25.07 11.8 53.3 40 -1.2 29.8
19:00 1020 30.12 849 25.07 11.9 53.3 39 -1.5 29.2
19:05 1020 30.12 849 25.07 12.3 54.1 37 -1.9 28.5
19:10 1020 30.12 849 25.07 12.5 54.4 38 -1.3 29.7
19:15 1020 30.12 850 25.1 12.3 54.1 38 -1.5 29.2
19:20 1020 30.12 850 25.1 12.2 53.9 39 -1.3 29.7
19:25 1020 30.12 850 25.1 12 53.6 40 -1.2 29.8
19:30 1020 30.12 850 25.1 11.8 53.2 41 -1.1 30
19:35 1021 30.15 850 25.1 11.5 52.7 41 -1.3 29.7
19:40 1021 30.15 850 25.1 11.5 52.6 40 -1.7 29
19:45 1021 30.15 850 25.1 11.4 52.4 42 -1.2 29.9
19:50 1021 30.15 850 25.1 10.9 51.7 43 -1.2 29.8
19:55 1021 30.15 850 25.1 10.8 51.4 43 -1.3 29.7
20:00 1021 30.15 850 25.1 10.7 51.2 43 -1.2 29.8
20:05 1021 30.15 850 25.1 10.6 51 42 -1.8 28.7
20:10 1021 30.15 850 25.1 10.9 51.6 40 -2 28.4
20:15 1021 30.15 850 25.1 11 51.9 40 -2 28.5
20:20 1021 30.15 850 25.1 11.1 52 39 -2.2 28.1
20:25 1021 30.15 850 25.1 11.1 52 40 -1.9 28.6
20:30 1021 30.15 850 25.1 10.8 51.4 41 -1.8 28.8
20:35 1021 30.15 850 25.1 10.4 50.7 42 -1.9 28.6
20:40 1021 30.15 850 25.1 10.4 50.6 41 -2.2 28
20:45 1021 30.15 850 25.1 10.3 50.5 43 -1.8 28.8
20:50 1021 30.15 850 25.1 10.2 50.3 39 -3.3 26.1
20:55 1021 30.15 850 25.1 10.6 51.2 39 -2.7 27.2
21:00 1021 30.15 850 25.1 10.2 50.4 40 -2.6 27.3
21:05 1021 30.15 850 25.1 10.3 50.5 39 -3.1 26.4
21:10 1021 30.15 850 25.1 10.7 51.2 39 -2.7 27.2
21:15 1021 30.15 850 25.1 10.7 51.3 39 -2.5 27.5
21:20 1021 30.15 850 25.1 11.1 51.9 39 -2.4 27.6
21:25 1021 30.15 850 25.1 11.4 52.5 38 -2.3 27.9
21:30 1021 30.15 850 25.1 11.4 52.6 39 -1.8 28.7
21:35 1021 30.15 850 25.1 10.2 50.4 44 -1.4 29.5
21:40 1021 30.15 850 25.1 9.5 49.1 45 -1.9 28.6
21:45 1021 30.15 850 25.1 9.5 49.1 45 -1.9 28.6
21:50 1021 30.15 850 25.1 9.5 49.1 45 -1.8 28.7
21:55 1021 30.15 850 25.1 9.5 49.2 46 -1.6 29.1
22:00 1021 30.15 850 25.1 9.5 49.1 46 -1.6 29
22:05 1021 30.15 850 25.1 10 49.9 44 -1.6 29.1
22:10 1021 30.15 851 25.13 9.9 49.8 43 -2.1 28.2
22:15 1021 30.15 851 25.13 9.8 49.6 43 -2.3 27.9
22:20 1021 30.15 851 25.13 10.6 51 40 -2.5 27.6
22:25 1022 30.18 851 25.13 10.5 51 41 -2.3 27.9
22:30 1021 30.15 851 25.13 10.8 51.5 40 -2.1 28.3
22:35 1021 30.15 851 25.13 10.6 51.1 41 -2.1 28.2
22:40 1021 30.15 851 25.13 10.4 50.8 42 -2 28.3
22:45 1022 30.18 851 25.13 10.2 50.4 42 -1.9 28.5
22:50 1022 30.18 851 25.13 10 49.9 43 -2.1 28.2
22:55 1022 30.18 851 25.13 10.1 50.1 42 -2.3 27.8
23:00 1022 30.18 851 25.13 10.2 50.4 41 -2.3 27.9
23:05 1022 30.18 851 25.13 10.2 50.3 42 -2.2 28
23:10 1022 30.18 851 25.13 10 50 43 -1.9 28.5
23:15 1022 30.18 851 25.13 9.5 49.1 45 -1.7 28.9
23:20 1022 30.18 851 25.13 9.1 48.4 46 -1.7 28.9
23:25 1022 30.18 851 25.13 8.8 47.8 47 -1.9 28.7
23:30 1022 30.18 851 25.13 9 48.2 44 -2.7 27.2
23:35 1022 30.18 851 25.13 9.8 49.7 41 -2.8 27
23:40 1022 30.18 851 25.13 10.4 50.7 39 -2.9 26.7
23:45 1022 30.18 851 25.13 10.9 51.7 37 -3.1 26.4
23:50 1022 30.18 851 25.13 11.4 52.6 35 -3.3 26
23:55 1022 30.18 851 25.13 11.7 53 35 -3.1 26.4
24:00 1022 30.18 851 25.13 11.5 52.7 36 -3.1 26.5